createdAt,value
2018-12-25T00:00:46.060Z,87.68
2018-12-25T00:03:13.013Z,87.74
2018-12-25T00:05:40.008Z,87.75
2018-12-25T00:08:07.009Z,87.81
2018-12-25T00:10:33.993Z,87.88
2018-12-25T00:13:02.647Z,87.86
2018-12-25T00:15:29.524Z,87.82
2018-12-25T00:17:56.542Z,87.82
2018-12-25T00:20:24.603Z,87.78
2018-12-25T00:22:51.615Z,87.80
2018-12-25T00:25:18.710Z,87.99
2018-12-25T00:27:45.691Z,87.98
2018-12-25T00:30:12.646Z,88.34
2018-12-25T00:32:39.646Z,88.58
2018-12-25T00:35:06.640Z,88.81
2018-12-25T00:37:33.582Z,88.85
2018-12-25T00:40:06.755Z,89.08
2018-12-25T00:42:33.676Z,89.16
2018-12-25T00:45:00.851Z,89.29
2018-12-25T00:47:27.832Z,89.45
2018-12-25T00:49:54.780Z,89.58
2018-12-25T00:52:21.770Z,89.79
2018-12-25T00:54:48.784Z,89.87
2018-12-25T00:57:15.768Z,89.97
2018-12-25T00:59:42.642Z,89.94
2018-12-25T01:02:09.541Z,90.03
2018-12-25T01:04:36.536Z,90.31
2018-12-25T01:07:04.558Z,90.38
2018-12-25T01:09:31.426Z,90.30
2018-12-25T01:11:58.395Z,90.29
2018-12-25T01:14:25.389Z,90.19
2018-12-25T01:16:52.459Z,90.08
2018-12-25T01:19:23.402Z,90.00
2018-12-25T01:25:30.450Z,89.84
2018-12-25T01:27:57.478Z,89.60
2018-12-25T01:30:24.420Z,89.59
2018-12-25T01:32:51.332Z,89.74
2018-12-25T01:35:18.192Z,89.73
2018-12-25T01:37:45.046Z,89.60
2018-12-25T01:40:11.922Z,89.65
2018-12-25T01:42:38.896Z,89.54
2018-12-25T01:45:05.779Z,89.18
2018-12-25T01:47:32.730Z,88.91
2018-12-25T01:49:59.784Z,88.37
2018-12-25T01:52:26.648Z,88.19
2018-12-25T01:54:53.658Z,88.06
2018-12-25T01:57:20.710Z,88.03
2018-12-25T01:59:47.692Z,87.90
2018-12-25T02:02:14.635Z,87.62
2018-12-25T02:04:41.635Z,87.42
2018-12-25T02:07:08.459Z,87.27
2018-12-25T02:09:35.497Z,87.39
2018-12-25T02:12:02.498Z,87.05
2018-12-25T02:14:29.397Z,86.55
2018-12-25T02:16:57.418Z,86.49
2018-12-25T02:19:24.245Z,86.16
2018-12-25T02:21:52.381Z,86.39
2018-12-25T02:24:19.567Z,86.30
2018-12-25T02:26:46.439Z,86.11
2018-12-25T02:29:13.440Z,86.06
2018-12-25T02:31:40.361Z,85.89
2018-12-25T02:34:07.274Z,85.69
2018-12-25T02:36:34.106Z,85.60
2018-12-25T02:39:01.000Z,85.29
2018-12-25T02:41:28.135Z,85.25
2018-12-25T02:43:55.157Z,85.28
2018-12-25T02:46:22.168Z,85.32
2018-12-25T02:48:49.078Z,84.98
2018-12-25T02:51:15.882Z,85.03
2018-12-25T02:53:42.912Z,84.99
2018-12-25T02:56:09.978Z,85.03
2018-12-25T02:58:38.688Z,85.07
2018-12-25T03:01:05.650Z,85.20
2018-12-25T03:03:32.592Z,85.20
2018-12-25T03:05:59.541Z,85.38
2018-12-25T03:08:26.401Z,85.26
2018-12-25T03:10:53.393Z,85.37
2018-12-25T03:13:20.363Z,85.29
2018-12-25T03:15:47.395Z,85.48
2018-12-25T03:18:14.442Z,85.56
2018-12-25T03:20:43.206Z,85.42
2018-12-25T03:23:10.205Z,85.29
2018-12-25T03:25:36.997Z,85.54
2018-12-25T03:28:03.913Z,85.17
2018-12-25T03:30:32.015Z,85.02
2018-12-25T03:32:58.998Z,84.97
2018-12-25T03:35:26.041Z,84.79
2018-12-25T03:37:52.990Z,84.80
2018-12-25T03:40:20.184Z,84.90
2018-12-25T03:42:47.162Z,84.71
2018-12-25T03:45:14.092Z,84.53
2018-12-25T03:47:42.118Z,84.38
2018-12-25T03:50:10.746Z,84.37
2018-12-25T03:52:37.842Z,84.40
2018-12-25T03:55:04.846Z,84.21
2018-12-25T03:57:32.092Z,84.32
2018-12-25T03:59:59.098Z,84.16
2018-12-25T04:02:26.011Z,84.05
2018-12-25T04:04:53.011Z,84.26
2018-12-25T04:07:19.976Z,84.33
2018-12-25T04:09:48.753Z,84.43
2018-12-25T04:12:15.673Z,84.35
2018-12-25T04:14:44.392Z,84.35
2018-12-25T04:17:12.196Z,84.16
2018-12-25T04:19:40.054Z,84.13
2018-12-25T04:22:07.791Z,83.96
2018-12-25T04:24:38.526Z,83.96
2018-12-25T04:27:05.454Z,83.94
2018-12-25T04:29:32.530Z,83.79
2018-12-25T04:31:59.466Z,83.78
2018-12-25T04:34:26.336Z,83.37
2018-12-25T04:36:53.156Z,82.76
2018-12-25T04:39:19.963Z,82.76
2018-12-25T04:41:46.859Z,82.58
2018-12-25T04:44:13.852Z,82.51
2018-12-25T04:46:40.797Z,82.63
2018-12-25T04:49:07.978Z,81.99
2018-12-25T04:51:34.814Z,82.21
2018-12-25T04:54:01.750Z,82.18
2018-12-25T04:56:28.755Z,82.19
2018-12-25T04:58:55.775Z,81.91
2018-12-25T05:01:22.632Z,81.77
2018-12-25T05:03:49.580Z,81.97
2018-12-25T05:06:16.464Z,82.08
2018-12-25T05:08:43.447Z,82.08
2018-12-25T05:11:10.363Z,82.38
2018-12-25T05:13:37.355Z,82.50
2018-12-25T05:16:04.334Z,82.58
2018-12-25T05:18:31.390Z,83.03
2018-12-25T05:21:00.157Z,83.13
2018-12-25T05:23:26.951Z,83.23
2018-12-25T05:25:54.228Z,83.10
2018-12-25T05:28:21.195Z,83.27
2018-12-25T05:30:48.219Z,83.27
2018-12-25T05:33:15.208Z,83.34
2018-12-25T05:35:42.132Z,83.10
2018-12-25T05:38:09.076Z,83.18
2018-12-25T05:40:36.056Z,83.10
2018-12-25T05:43:03.032Z,83.22
2018-12-25T05:45:29.927Z,83.32
2018-12-25T05:47:56.872Z,83.59
2018-12-25T05:50:24.868Z,83.66
2018-12-25T05:52:51.792Z,83.94
2018-12-25T05:55:19.528Z,84.00
2018-12-25T05:57:46.564Z,84.02
2018-12-25T06:00:13.603Z,83.83
2018-12-25T06:02:42.394Z,84.06
2018-12-25T06:05:09.658Z,84.04
2018-12-25T06:07:36.613Z,84.40
2018-12-25T06:10:03.796Z,84.63
2018-12-25T06:12:30.819Z,84.73
2018-12-25T06:14:58.963Z,84.94
2018-12-25T06:17:25.892Z,84.81
2018-12-25T06:19:52.915Z,84.76
2018-12-25T06:22:19.843Z,84.77
2018-12-25T06:24:46.834Z,84.81
2018-12-25T06:27:13.957Z,84.31
2018-12-25T06:29:40.911Z,84.15
2018-12-25T06:32:07.851Z,84.17
2018-12-25T06:34:34.835Z,84.47
2018-12-25T06:37:01.892Z,84.45
2018-12-25T06:39:28.835Z,84.67
2018-12-25T06:41:55.842Z,84.70
2018-12-25T06:44:22.767Z,84.63
2018-12-25T06:46:49.794Z,84.58
2018-12-25T06:49:16.805Z,84.46
2018-12-25T06:51:43.720Z,84.34
2018-12-25T06:54:10.754Z,84.08
2018-12-25T06:56:37.644Z,84.19
2018-12-25T06:59:05.705Z,84.21
2018-12-25T07:01:32.721Z,84.34
2018-12-25T07:04:00.370Z,84.46
2018-12-25T07:06:27.534Z,84.75
2018-12-25T07:08:54.637Z,84.53
2018-12-25T07:11:21.793Z,84.33
2018-12-25T07:13:48.937Z,84.06
2018-12-25T07:16:16.103Z,83.90
2018-12-25T07:18:43.222Z,83.98
2018-12-25T07:21:12.504Z,83.80
2018-12-25T07:23:39.510Z,83.46
2018-12-25T07:26:08.354Z,83.25
2018-12-25T07:28:35.475Z,83.34
2018-12-25T07:31:02.544Z,83.07
2018-12-25T07:33:29.746Z,83.34
2018-12-25T07:35:57.922Z,83.18
2018-12-25T07:38:25.040Z,83.10
2018-12-25T07:40:54.095Z,82.53
2018-12-25T07:43:21.176Z,82.59
2018-12-25T07:45:48.239Z,82.55
2018-12-25T07:48:15.539Z,82.78
2018-12-25T07:50:42.605Z,82.43
2018-12-25T07:53:09.682Z,82.77
2018-12-25T07:55:38.577Z,82.87
2018-12-25T07:58:05.819Z,82.86
2018-12-25T08:00:32.992Z,82.88
2018-12-25T08:03:00.133Z,82.97
2018-12-25T08:05:27.274Z,82.88
2018-12-25T08:07:54.352Z,82.68
2018-12-25T08:10:21.411Z,82.84
2018-12-25T08:12:48.461Z,82.88
2018-12-25T08:15:15.509Z,82.59
2018-12-25T08:17:42.652Z,82.83
2018-12-25T08:20:09.687Z,82.90
2018-12-25T08:22:36.713Z,83.05
2018-12-25T08:25:03.921Z,82.85
2018-12-25T08:27:32.093Z,83.00
2018-12-25T08:29:59.103Z,82.69
2018-12-25T08:32:27.191Z,83.09
2018-12-25T08:34:54.587Z,82.94
2018-12-25T08:37:21.620Z,82.70
2018-12-25T08:39:48.743Z,82.76
2018-12-25T08:42:15.758Z,82.71
2018-12-25T08:44:42.987Z,82.53
2018-12-25T08:47:11.637Z,82.38
2018-12-25T08:49:41.813Z,82.41
2018-12-25T08:52:08.856Z,82.26
2018-12-25T08:54:37.948Z,82.23
2018-12-25T08:57:05.024Z,81.83
2018-12-25T08:59:32.019Z,81.66
2018-12-25T09:01:59.148Z,81.27
2018-12-25T09:04:27.012Z,81.21
2018-12-25T09:06:54.058Z,81.18
2018-12-25T09:09:21.335Z,80.54
2018-12-25T09:11:48.394Z,81.12
2018-12-25T09:14:17.253Z,80.82
2018-12-25T09:16:44.379Z,80.86
2018-12-25T09:19:11.407Z,80.88
2018-12-25T09:21:46.187Z,80.74
2018-12-25T09:24:07.411Z,80.96
2018-12-25T09:26:34.450Z,80.52
2018-12-25T09:29:01.519Z,80.31
2018-12-25T09:31:28.601Z,79.50
2018-12-25T09:33:55.776Z,80.32
2018-12-25T09:36:22.786Z,79.65
2018-12-25T09:38:51.165Z,79.72
2018-12-25T09:41:18.479Z,79.30
2018-12-25T09:43:45.517Z,79.60
2018-12-25T09:46:12.612Z,79.70
2018-12-25T09:48:39.997Z,79.66
2018-12-25T09:51:07.346Z,79.99
2018-12-25T09:53:34.517Z,79.96
2018-12-25T09:56:01.704Z,79.52
2018-12-25T09:58:28.824Z,78.93
2018-12-25T10:00:55.865Z,78.94
2018-12-25T10:03:22.888Z,79.37
2018-12-25T10:05:49.921Z,79.04
2018-12-25T10:08:18.070Z,79.09
2018-12-25T10:10:45.053Z,79.08
2018-12-25T10:13:12.042Z,79.16
2018-12-25T10:15:39.145Z,79.30
2018-12-25T10:18:06.305Z,79.42
2018-12-25T10:20:33.272Z,80.08
2018-12-25T10:23:00.379Z,79.37
2018-12-25T10:25:27.440Z,80.01
2018-12-25T10:27:54.651Z,80.43
2018-12-25T10:30:22.046Z,80.47
2018-12-25T10:32:50.220Z,80.65
2018-12-25T10:35:19.428Z,80.91
2018-12-25T10:37:47.470Z,81.10
2018-12-25T10:40:15.095Z,81.19
2018-12-25T10:42:42.610Z,81.11
2018-12-25T10:45:20.105Z,80.93
2018-12-25T10:47:58.599Z,81.14
2018-12-25T10:50:26.699Z,81.14
2018-12-25T10:52:53.654Z,81.35
2018-12-25T10:55:20.915Z,81.12
2018-12-25T10:57:47.906Z,81.32
2018-12-25T11:00:15.570Z,80.98
2018-12-25T11:02:44.233Z,80.99
2018-12-25T11:05:14.755Z,81.00
2018-12-25T11:07:42.124Z,81.23
2018-12-25T11:10:10.287Z,81.42
2018-12-25T11:12:37.814Z,80.79
2018-12-25T11:15:06.235Z,81.06
2018-12-25T11:17:34.370Z,80.99
2018-12-25T11:20:02.408Z,81.17
2018-12-25T11:22:30.228Z,81.30
2018-12-25T11:24:58.240Z,81.55
2018-12-25T11:27:25.950Z,81.46
2018-12-25T11:30:06.849Z,81.24
2018-12-25T11:32:46.506Z,81.43
2018-12-25T11:35:18.158Z,81.68
2018-12-25T11:40:24.746Z,81.66
2018-12-25T11:42:52.040Z,81.75
2018-12-25T11:45:19.544Z,81.98
2018-12-25T11:47:46.952Z,81.90
2018-12-25T11:50:14.643Z,81.59
2018-12-25T11:52:42.128Z,81.33
2018-12-25T11:55:10.680Z,81.16
2018-12-25T11:57:38.816Z,80.78
2018-12-25T12:00:06.622Z,80.11
2018-12-25T12:02:33.635Z,79.83
2018-12-25T12:05:06.741Z,79.96
2018-12-25T12:07:33.795Z,79.95
2018-12-25T12:10:00.937Z,80.40
2018-12-25T12:12:27.989Z,79.83
2018-12-25T12:14:55.121Z,79.79
2018-12-25T12:17:22.350Z,80.07
2018-12-25T12:19:49.438Z,79.96
2018-12-25T12:22:16.521Z,79.80
2018-12-25T12:24:54.505Z,79.99
2018-12-25T12:27:33.608Z,80.55
2018-12-25T12:30:15.253Z,80.71
2018-12-25T12:32:53.824Z,80.42
2018-12-25T12:35:29.320Z,80.34
2018-12-25T12:38:12.633Z,80.21
2018-12-25T12:40:50.629Z,79.96
2018-12-25T12:43:19.143Z,80.49
2018-12-25T12:45:46.368Z,80.50
2018-12-25T12:48:13.749Z,80.36
2018-12-25T12:50:40.857Z,80.73
2018-12-25T12:53:07.895Z,80.93
2018-12-25T12:55:34.939Z,81.05
2018-12-25T12:58:02.039Z,81.12
2018-12-25T13:00:29.094Z,81.03
2018-12-25T13:02:56.211Z,80.83
2018-12-25T13:05:23.345Z,80.63
2018-12-25T13:07:50.330Z,81.07
2018-12-25T13:10:17.375Z,80.95
2018-12-25T13:12:44.523Z,81.08
2018-12-25T13:15:11.852Z,81.06
2018-12-25T13:17:40.254Z,81.56
2018-12-25T13:20:07.308Z,81.52
2018-12-25T13:22:34.358Z,81.62
2018-12-25T13:25:01.354Z,81.27
2018-12-25T13:27:28.489Z,81.34
2018-12-25T13:29:55.565Z,81.33
2018-12-25T13:32:22.700Z,81.43
2018-12-25T13:34:49.702Z,81.43
2018-12-25T13:37:16.803Z,81.35
2018-12-25T13:39:45.612Z,81.48
2018-12-25T13:42:12.851Z,81.63
2018-12-25T13:44:41.783Z,82.03
2018-12-25T13:47:08.834Z,81.87
2018-12-25T13:49:35.881Z,81.91
2018-12-25T13:52:02.947Z,81.84
2018-12-25T13:54:31.653Z,81.69
2018-12-25T13:56:58.711Z,81.43
2018-12-25T13:59:25.718Z,81.32
2018-12-25T14:01:52.842Z,81.33
2018-12-25T14:04:19.813Z,81.62
2018-12-25T14:06:46.966Z,81.51
2018-12-25T14:09:13.981Z,81.53
2018-12-25T14:11:40.931Z,81.46
2018-12-25T14:14:07.992Z,81.59
2018-12-25T14:16:36.851Z,81.20
2018-12-25T14:19:03.908Z,80.85
2018-12-25T14:21:31.225Z,80.58
2018-12-25T14:23:58.323Z,80.56
2018-12-25T14:26:25.305Z,80.16
2018-12-25T14:28:52.216Z,80.07
2018-12-25T14:31:19.191Z,80.22
2018-12-25T14:33:46.328Z,80.19
2018-12-25T14:36:13.295Z,79.88
2018-12-25T14:38:40.357Z,79.85
2018-12-25T14:41:09.362Z,79.89
2018-12-25T14:43:36.255Z,80.15
2018-12-25T14:46:03.290Z,80.38
2018-12-25T14:48:30.369Z,80.15
2018-12-25T14:51:00.293Z,80.05
2018-12-25T14:53:27.304Z,79.93
2018-12-25T14:55:54.439Z,79.78
2018-12-25T14:58:21.420Z,79.77
2018-12-25T15:00:48.385Z,79.47
2018-12-25T15:03:15.435Z,79.62
2018-12-25T15:05:42.382Z,79.74
2018-12-25T15:08:09.464Z,79.46
2018-12-25T15:10:36.511Z,79.14
2018-12-25T15:13:03.466Z,79.26
2018-12-25T15:15:30.488Z,79.18
2018-12-25T15:17:57.501Z,79.22
2018-12-25T15:20:24.534Z,78.96
2018-12-25T15:22:51.556Z,78.93
2018-12-25T15:25:18.446Z,78.85
2018-12-25T15:27:45.529Z,79.19
2018-12-25T15:30:12.546Z,79.20
2018-12-25T15:32:39.493Z,79.13
2018-12-25T15:35:09.074Z,79.05
2018-12-25T15:37:36.108Z,79.02
2018-12-25T15:40:03.078Z,79.04
2018-12-25T15:42:30.010Z,78.87
2018-12-25T15:44:57.122Z,78.70
2018-12-25T15:47:24.130Z,78.99
2018-12-25T15:49:59.837Z,79.13
2018-12-25T15:52:30.118Z,79.15
2018-12-25T15:55:01.345Z,78.69
2018-12-25T15:57:53.106Z,78.70
2018-12-25T16:00:22.627Z,79.03
2018-12-25T16:02:50.119Z,78.98
2018-12-25T16:05:17.070Z,78.94
2018-12-25T16:07:48.120Z,78.66
2018-12-25T16:10:18.957Z,78.80
2018-12-25T16:12:46.822Z,78.75
2018-12-25T16:15:21.097Z,78.85
2018-12-25T16:17:51.152Z,78.81
2018-12-25T16:20:29.862Z,78.69
2018-12-25T16:23:16.297Z,78.71
2018-12-25T16:26:06.540Z,78.58
2018-12-25T16:28:40.612Z,78.74
2018-12-25T16:31:23.806Z,78.56
2018-12-25T16:34:20.016Z,78.51
2018-12-25T16:37:10.323Z,78.10
2018-12-25T16:39:38.045Z,78.26
2018-12-25T16:42:13.988Z,78.22
2018-12-25T16:45:04.208Z,78.27
2018-12-25T16:47:31.298Z,78.13
2018-12-25T16:50:05.376Z,78.30
2018-12-25T16:52:34.522Z,77.86
2018-12-25T16:55:04.621Z,77.69
2018-12-25T16:57:31.556Z,77.93
2018-12-25T17:00:06.454Z,77.95
2018-12-25T17:02:33.398Z,78.02
2018-12-25T17:05:15.451Z,78.07
2018-12-25T17:08:00.886Z,78.17
2018-12-25T17:10:29.209Z,78.04
2018-12-25T17:13:00.445Z,77.75
2018-12-25T17:15:40.902Z,77.83
2018-12-25T17:18:12.423Z,77.92
2018-12-25T17:20:44.867Z,78.16
2018-12-25T17:23:12.096Z,78.47
2018-12-25T17:25:39.215Z,78.54
2018-12-25T17:28:06.246Z,78.38
2018-12-25T17:30:34.162Z,78.67
2018-12-25T17:33:02.950Z,78.65
2018-12-25T17:35:29.907Z,78.70
2018-12-25T17:37:56.943Z,78.52
2018-12-25T17:40:24.874Z,78.63
2018-12-25T17:42:52.903Z,78.83
2018-12-25T17:45:20.039Z,78.44
2018-12-25T17:47:47.002Z,78.59
2018-12-25T17:50:13.908Z,78.79
2018-12-25T17:52:40.922Z,78.65
2018-12-25T17:55:07.918Z,78.77
2018-12-25T17:57:34.911Z,79.15
2018-12-25T18:00:01.919Z,78.86
2018-12-25T18:02:28.871Z,79.10
2018-12-25T18:04:55.858Z,79.30
2018-12-25T18:07:22.786Z,79.64
2018-12-25T18:09:49.761Z,79.46
2018-12-25T18:12:16.781Z,79.37
2018-12-25T18:14:43.637Z,79.42
2018-12-25T18:17:18.646Z,79.50
2018-12-25T18:19:39.722Z,79.46
2018-12-25T18:22:07.360Z,79.51
2018-12-25T18:24:34.849Z,79.67
2018-12-25T18:27:01.829Z,79.50
2018-12-25T18:29:28.854Z,79.63
2018-12-25T18:31:56.025Z,79.53
2018-12-25T18:34:23.097Z,79.63
2018-12-25T18:36:50.214Z,79.38
2018-12-25T18:39:17.211Z,79.21
2018-12-25T18:41:44.256Z,78.91
2018-12-25T18:44:11.323Z,79.14
2018-12-25T18:46:38.372Z,79.17
2018-12-25T18:49:05.391Z,79.08
2018-12-25T18:51:32.394Z,79.16
2018-12-25T18:53:59.404Z,79.17
2018-12-25T18:56:26.395Z,79.01
2018-12-25T18:58:53.445Z,78.82
2018-12-25T19:01:20.543Z,78.94
2018-12-25T19:03:47.614Z,78.87
2018-12-25T19:06:14.741Z,78.92
2018-12-25T19:08:41.806Z,78.93
2018-12-25T19:11:09.033Z,78.70
2018-12-25T19:13:36.175Z,78.85
2018-12-25T19:16:04.410Z,78.98
2018-12-25T19:18:31.644Z,78.78
2018-12-25T19:20:58.645Z,79.11
2018-12-25T19:23:25.817Z,79.08
2018-12-25T19:25:52.888Z,78.58
2018-12-25T19:28:20.027Z,78.34
2018-12-25T19:30:47.213Z,78.07
2018-12-25T19:33:14.217Z,77.93
2018-12-25T19:35:41.170Z,77.65
2018-12-25T19:38:08.207Z,77.22
2018-12-25T19:40:35.241Z,77.04
2018-12-25T19:43:02.316Z,76.86
2018-12-25T19:45:31.231Z,76.87
2018-12-25T19:47:58.232Z,76.63
2018-12-25T19:50:25.294Z,76.65
2018-12-25T19:52:52.441Z,76.56
2018-12-25T19:55:19.619Z,76.57
2018-12-25T19:57:46.413Z,76.54
2018-12-25T20:00:14.043Z,76.41
2018-12-25T20:02:42.195Z,76.50
2018-12-25T20:06:15.551Z,76.33
2018-12-25T20:09:16.069Z,76.49
2018-12-25T20:12:10.486Z,76.80
2018-12-25T20:14:58.755Z,76.89
2018-12-25T20:18:09.755Z,76.61
2018-12-25T20:21:21.036Z,76.93
2018-12-25T20:24:19.841Z,76.77
2018-12-25T20:27:30.807Z,76.58
2018-12-25T20:30:54.823Z,77.03
2018-12-25T20:33:36.937Z,76.87
2018-12-25T20:36:50.280Z,76.88
2018-12-25T20:39:56.150Z,76.93
2018-12-25T20:43:03.992Z,77.26
2018-12-25T20:46:21.476Z,77.14
2018-12-25T20:49:22.289Z,77.22
2018-12-25T20:52:11.837Z,77.56
2018-12-25T20:55:18.837Z,77.40
2018-12-25T20:58:26.405Z,77.55
2018-12-25T21:01:29.985Z,77.46
2018-12-25T21:04:48.074Z,77.26
2018-12-25T21:07:59.156Z,77.62
2018-12-25T21:11:05.332Z,77.87
2018-12-25T21:14:10.489Z,77.82
2018-12-25T21:17:04.799Z,77.89
2018-12-25T21:20:16.617Z,77.84
2018-12-25T21:23:20.118Z,77.88
2018-12-25T21:26:23.561Z,77.91
2018-12-25T21:28:50.711Z,78.22
2018-12-25T21:31:17.879Z,78.28
2018-12-25T21:33:45.089Z,78.17
2018-12-25T21:36:12.211Z,78.19
2018-12-25T21:38:39.272Z,77.83
2018-12-25T21:41:06.961Z,77.92
2018-12-25T21:43:33.968Z,77.59
2018-12-25T21:46:01.151Z,77.55
2018-12-25T21:48:28.281Z,77.61
2018-12-25T21:50:56.719Z,77.18
2018-12-25T21:53:23.838Z,76.94
2018-12-25T21:55:51.202Z,77.23
2018-12-25T21:58:18.225Z,77.16
2018-12-25T22:00:45.072Z,77.24
2018-12-25T22:03:12.769Z,77.12
2018-12-25T22:05:39.726Z,77.21
2018-12-25T22:08:06.694Z,77.25
2018-12-25T22:10:33.704Z,77.11
2018-12-25T22:13:00.715Z,76.90
2018-12-25T22:15:27.803Z,76.73
2018-12-25T22:17:54.843Z,77.10
2018-12-25T22:20:25.702Z,76.89
2018-12-25T22:22:52.791Z,77.10
2018-12-25T22:25:27.102Z,77.04
2018-12-25T22:27:48.636Z,77.07
2018-12-25T22:30:15.604Z,77.43
2018-12-25T22:32:42.462Z,77.44
2018-12-25T22:35:10.777Z,77.25
2018-12-25T22:37:39.624Z,77.47
2018-12-25T22:40:09.262Z,77.45
2018-12-25T22:42:36.243Z,77.52
2018-12-25T22:45:11.321Z,77.43
2018-12-25T22:47:49.060Z,77.12
2018-12-25T22:50:23.525Z,76.94
2018-12-25T22:52:50.602Z,77.13
2018-12-25T22:55:21.131Z,76.96
2018-12-25T22:57:48.322Z,76.90
2018-12-25T23:00:45.231Z,77.11
2018-12-25T23:02:59.116Z,76.76
2018-12-25T23:05:27.335Z,76.99
2018-12-25T23:07:55.920Z,76.74
2018-12-25T23:10:22.933Z,76.80
2018-12-25T23:12:49.947Z,76.82
2018-12-25T23:15:16.884Z,76.53
2018-12-25T23:17:43.889Z,76.93
2018-12-25T23:20:10.763Z,77.13
2018-12-25T23:22:37.846Z,77.43
2018-12-25T23:25:05.111Z,77.46
2018-12-25T23:27:32.036Z,77.35
2018-12-25T23:29:59.048Z,77.32
2018-12-25T23:32:26.006Z,77.39
2018-12-25T23:34:53.066Z,77.33
2018-12-25T23:37:19.986Z,77.31
2018-12-25T23:39:47.060Z,77.53
2018-12-25T23:42:13.988Z,77.36
2018-12-25T23:44:40.987Z,77.42
2018-12-25T23:47:07.988Z,77.40
2018-12-25T23:49:34.973Z,77.36
2018-12-25T23:52:01.935Z,77.46
2018-12-25T23:54:28.993Z,77.47
2018-12-25T23:56:55.933Z,77.47
2018-12-25T23:59:22.920Z,77.19
